createdAt,value
2023-04-20T00:01:35.586Z,70.10
2023-04-20T00:04:03.173Z,70.00
2023-04-20T00:06:31.468Z,70.60
2023-04-20T00:08:59.035Z,70.50
2023-04-20T00:11:26.543Z,70.90
2023-04-20T00:13:54.071Z,71.30
2023-04-20T00:16:22.437Z,70.30
2023-04-20T00:18:49.945Z,70.20
2023-04-20T00:21:17.478Z,70.60
2023-04-20T00:23:45.043Z,71.20
2023-04-20T00:26:12.577Z,71.00
2023-04-20T00:28:40.874Z,71.50
2023-04-20T00:31:08.531Z,71.40
2023-04-20T00:33:35.987Z,71.80
2023-04-20T00:36:03.518Z,72.90
2023-04-20T00:38:32.581Z,72.40
2023-04-20T00:41:00.124Z,72.80
2023-04-20T00:43:27.640Z,72.90
2023-04-20T00:45:56.021Z,73.60
2023-04-20T00:48:23.546Z,73.60
2023-04-20T00:50:51.070Z,73.90
2023-04-20T00:53:19.373Z,74.20
2023-04-20T00:55:46.967Z,74.50
2023-04-20T00:58:15.258Z,75.10
2023-04-20T01:00:43.565Z,74.60
2023-04-20T01:03:11.233Z,74.60
2023-04-20T01:05:38.664Z,74.50
2023-04-20T01:08:06.223Z,74.70
2023-04-20T01:10:33.768Z,74.80
2023-04-20T01:13:02.058Z,75.50
2023-04-20T01:15:29.674Z,75.50
2023-04-20T01:17:57.210Z,75.70
2023-04-20T01:20:24.710Z,76.10
2023-04-20T01:22:53.023Z,76.20
2023-04-20T01:25:21.308Z,76.10
2023-04-20T01:27:49.234Z,76.30
2023-04-20T01:30:17.560Z,77.00
2023-04-20T01:32:45.199Z,77.00
2023-04-20T01:35:12.675Z,77.20
2023-04-20T01:37:40.198Z,77.40
2023-04-20T01:40:11.710Z,77.10
2023-04-20T01:42:39.252Z,77.10
2023-04-20T01:45:06.912Z,77.50
2023-04-20T01:47:34.473Z,77.90
2023-04-20T01:50:02.007Z,78.30
2023-04-20T01:52:30.275Z,78.90
2023-04-20T01:54:57.823Z,78.90
2023-04-20T01:57:26.108Z,79.40
2023-04-20T01:59:54.396Z,79.90
2023-04-20T02:02:22.270Z,79.90
2023-04-20T02:04:49.674Z,80.30
2023-04-20T02:09:39.549Z,81.20
2023-04-20T02:12:07.098Z,81.80
2023-04-20T02:14:34.610Z,82.40
2023-04-20T02:17:02.228Z,83.60
2023-04-20T02:19:29.713Z,83.50
2023-04-20T02:21:58.003Z,84.10
2023-04-20T02:24:26.560Z,84.00
2023-04-20T02:26:54.096Z,84.40
2023-04-20T02:29:21.629Z,84.80
2023-04-20T02:31:49.564Z,85.00
2023-04-20T02:34:17.221Z,85.50
2023-04-20T02:36:46.712Z,85.40
2023-04-20T02:39:14.614Z,85.30
2023-04-20T02:41:42.140Z,85.70
2023-04-20T02:44:09.680Z,86.10
2023-04-20T02:46:37.520Z,86.60
2023-04-20T02:49:04.991Z,87.10
2023-04-20T02:51:32.527Z,87.70
2023-04-20T02:54:00.142Z,87.40
2023-04-20T02:56:27.642Z,87.80
2023-04-20T02:58:55.192Z,88.20
2023-04-20T03:01:23.527Z,89.70
2023-04-20T03:03:51.264Z,88.90
2023-04-20T03:06:18.582Z,89.20
2023-04-20T03:08:46.914Z,89.70
2023-04-20T03:11:14.438Z,89.70
2023-04-20T03:13:41.966Z,90.00
2023-04-20T03:16:11.478Z,90.00
2023-04-20T03:18:38.957Z,90.00
2023-04-20T03:21:06.567Z,90.10
2023-04-20T03:23:35.953Z,90.60
2023-04-20T03:26:03.473Z,90.60
2023-04-20T03:28:31.019Z,90.80
2023-04-20T03:30:58.597Z,90.90
2023-04-20T03:33:26.118Z,91.10
2023-04-20T03:35:54.488Z,91.30
2023-04-20T03:38:22.054Z,91.60
2023-04-20T03:40:50.347Z,92.20
2023-04-20T03:43:17.907Z,92.20
2023-04-20T03:45:45.610Z,91.90
2023-04-20T03:48:13.098Z,92.20
2023-04-20T03:50:40.617Z,92.40
2023-04-20T03:53:08.248Z,92.50
2023-04-20T03:55:35.790Z,92.70
2023-04-20T03:58:04.103Z,93.00
2023-04-20T04:00:31.979Z,93.30
2023-04-20T04:02:59.681Z,93.00
2023-04-20T04:05:28.014Z,93.30
2023-04-20T04:07:56.324Z,93.80
2023-04-20T04:10:23.848Z,93.50
2023-04-20T04:12:51.795Z,93.90
2023-04-20T04:15:21.119Z,94.50
2023-04-20T04:17:48.757Z,94.50
2023-04-20T04:20:16.244Z,94.80
2023-04-20T04:22:43.839Z,95.10
2023-04-20T04:25:11.741Z,95.60
2023-04-20T04:27:39.199Z,95.90
2023-04-20T04:30:06.921Z,96.10
2023-04-20T04:32:39.566Z,96.00
2023-04-20T04:35:07.014Z,95.80
2023-04-20T04:37:37.296Z,96.00
2023-04-20T04:40:05.284Z,96.20
2023-04-20T04:42:33.606Z,96.80
2023-04-20T04:45:01.162Z,96.80
2023-04-20T04:47:28.720Z,97.10
2023-04-20T04:49:56.217Z,97.50
2023-04-20T04:52:23.804Z,97.80
2023-04-20T04:54:51.329Z,98.20
2023-04-20T04:57:18.874Z,98.60
2023-04-20T04:59:46.601Z,98.80
2023-04-20T05:02:14.208Z,99.10
2023-04-20T05:04:42.497Z,99.60
2023-04-20T05:07:12.698Z,99.50
2023-04-20T05:09:40.238Z,99.60
2023-04-20T05:12:07.843Z,99.80
2023-04-20T05:14:36.255Z,99.90
2023-04-20T05:17:03.804Z,99.90
2023-04-20T05:19:31.355Z,99.90
2023-04-20T05:21:59.069Z,99.90
2023-04-20T05:24:26.585Z,99.80
2023-04-20T05:26:54.109Z,99.90
2023-04-20T05:29:22.439Z,99.90
2023-04-20T05:31:50.031Z,99.90
2023-04-20T05:34:17.507Z,99.90
2023-04-20T05:36:45.917Z,99.90
2023-04-20T05:39:13.467Z,99.90
2023-04-20T05:41:41.768Z,99.90
2023-04-20T05:44:09.320Z,99.90
2023-04-20T05:46:36.857Z,99.90
2023-04-20T05:49:04.399Z,99.90
2023-04-20T05:51:32.750Z,99.90
2023-04-20T05:54:00.294Z,99.90
2023-04-20T05:56:27.821Z,99.90
2023-04-20T05:58:58.349Z,99.90
2023-04-20T06:01:25.885Z,99.90
2023-04-20T06:03:54.387Z,99.90
2023-04-20T06:06:21.775Z,99.90
2023-04-20T06:08:49.309Z,99.90
2023-04-20T06:11:16.821Z,99.90
2023-04-20T06:13:44.533Z,99.90
2023-04-20T06:16:12.126Z,99.10
2023-04-20T06:18:39.617Z,98.20
2023-04-20T06:21:08.234Z,97.50
2023-04-20T06:23:35.759Z,97.50
2023-04-20T06:26:04.041Z,97.50
2023-04-20T06:28:32.391Z,96.90
2023-04-20T06:30:59.970Z,96.90
2023-04-20T06:33:27.529Z,96.90
2023-04-20T06:35:56.660Z,96.80
2023-04-20T06:38:24.205Z,96.80
2023-04-20T06:40:51.736Z,97.10
2023-04-20T06:43:19.455Z,97.70
2023-04-20T06:45:46.999Z,98.20
2023-04-20T06:48:30.027Z,98.90
2023-04-20T06:50:42.110Z,99.70
2023-04-20T06:53:09.667Z,99.90
2023-04-20T06:55:37.229Z,99.90
2023-04-20T06:58:04.821Z,99.90
2023-04-20T07:00:32.348Z,99.90
2023-04-20T07:02:59.923Z,99.90
2023-04-20T07:05:28.538Z,99.90
2023-04-20T07:07:56.052Z,99.90
2023-04-20T07:10:23.618Z,99.90
2023-04-20T07:12:51.215Z,99.90
2023-04-20T07:15:18.735Z,99.90
2023-04-20T07:17:46.369Z,99.90
2023-04-20T07:20:13.903Z,99.90
2023-04-20T07:22:41.517Z,99.90
2023-04-20T07:25:09.147Z,99.90
2023-04-20T07:27:36.715Z,99.90
2023-04-20T07:30:04.263Z,99.90
2023-04-20T07:32:32.572Z,99.90
2023-04-20T07:35:01.436Z,99.90
2023-04-20T07:37:29.064Z,99.90
2023-04-20T07:39:56.606Z,99.90
2023-04-20T07:42:24.171Z,99.90
2023-04-20T07:44:51.875Z,99.90
2023-04-20T07:47:20.252Z,99.90
2023-04-20T07:49:47.856Z,99.90
2023-04-20T07:52:17.225Z,99.90
2023-04-20T07:54:44.496Z,99.90
2023-04-20T07:57:12.062Z,99.90
2023-04-20T07:59:40.419Z,99.90
2023-04-20T08:02:08.031Z,99.90
2023-04-20T08:04:35.585Z,99.90
2023-04-20T08:07:04.114Z,99.90
2023-04-20T08:09:31.408Z,99.90
2023-04-20T08:11:58.946Z,99.90
2023-04-20T08:14:26.603Z,99.90
2023-04-20T08:16:54.156Z,99.90
2023-04-20T08:19:21.654Z,99.90
2023-04-20T08:21:49.287Z,99.90
2023-04-20T08:24:17.255Z,99.90
2023-04-20T08:26:45.106Z,99.90
2023-04-20T08:29:12.690Z,99.90
2023-04-20T08:31:40.239Z,99.90
2023-04-20T08:34:07.768Z,99.90
2023-04-20T08:36:36.129Z,99.90
2023-04-20T08:39:09.546Z,99.90
2023-04-20T08:41:37.825Z,99.90
2023-04-20T08:44:06.191Z,99.90
2023-04-20T08:46:34.622Z,99.90
2023-04-20T08:49:02.014Z,99.90
2023-04-20T08:51:29.600Z,99.90
2023-04-20T08:53:57.123Z,99.90
2023-04-20T08:56:37.033Z,99.90
2023-04-20T08:59:08.166Z,99.90
2023-04-20T09:01:36.362Z,99.90
2023-04-20T09:04:04.277Z,99.90
2023-04-20T09:06:31.618Z,99.90
2023-04-20T09:08:59.136Z,99.90
2023-04-20T09:11:26.750Z,99.90
2023-04-20T09:14:03.100Z,99.90
2023-04-20T09:16:30.742Z,99.90
2023-04-20T09:18:58.178Z,99.90
2023-04-20T09:21:25.710Z,99.90
2023-04-20T09:23:59.312Z,99.90
2023-04-20T09:26:26.805Z,99.90
2023-04-20T09:28:54.340Z,99.90
2023-04-20T09:31:21.992Z,99.90
2023-04-20T09:33:58.240Z,99.90
2023-04-20T09:36:25.716Z,99.90
2023-04-20T09:39:05.583Z,99.90
2023-04-20T09:41:33.158Z,99.90
2023-04-20T09:44:00.650Z,99.90
2023-04-20T09:46:31.104Z,99.90
2023-04-20T09:48:59.400Z,99.90
2023-04-20T09:51:29.952Z,99.90
2023-04-20T09:53:57.531Z,99.90
2023-04-20T09:56:25.065Z,99.90
2023-04-20T09:58:54.855Z,99.90
2023-04-20T10:01:20.267Z,99.90
2023-04-20T10:03:47.927Z,99.90
2023-04-20T10:06:21.174Z,99.90
2023-04-20T10:08:49.465Z,99.90
2023-04-20T10:11:27.973Z,99.90
2023-04-20T10:13:54.144Z,99.90
2023-04-20T10:16:21.712Z,99.90
2023-04-20T10:19:00.865Z,99.90
2023-04-20T10:21:28.399Z,99.90
2023-04-20T10:23:55.932Z,99.90
2023-04-20T10:26:23.599Z,99.90
2023-04-20T10:28:51.128Z,99.90
2023-04-20T10:31:19.530Z,99.90
2023-04-20T10:33:50.961Z,99.90
2023-04-20T10:36:27.624Z,99.90
2023-04-20T10:38:55.192Z,99.90
2023-04-20T10:41:23.487Z,99.90
2023-04-20T10:43:51.019Z,99.90
2023-04-20T10:46:19.450Z,99.90
2023-04-20T10:48:52.290Z,99.90
2023-04-20T10:51:20.593Z,99.90
2023-04-20T10:53:48.228Z,99.90
2023-04-20T10:56:15.710Z,99.90
2023-04-20T10:58:43.219Z,99.90
2023-04-20T11:01:10.813Z,99.90
2023-04-20T11:03:38.475Z,99.90
2023-04-20T11:06:06.632Z,99.90
2023-04-20T11:08:40.959Z,99.90
2023-04-20T11:11:20.477Z,99.90
2023-04-20T11:13:48.041Z,99.90
2023-04-20T11:16:16.416Z,99.90
2023-04-20T11:18:46.895Z,99.90
2023-04-20T11:21:15.206Z,99.90
2023-04-20T11:23:42.728Z,99.90
2023-04-20T11:26:10.272Z,99.90
2023-04-20T11:28:37.870Z,99.90
2023-04-20T11:31:05.443Z,99.90
2023-04-20T11:33:32.954Z,99.90
2023-04-20T11:36:01.258Z,99.90
2023-04-20T11:38:28.820Z,99.90
2023-04-20T11:40:56.330Z,99.90
2023-04-20T11:43:24.679Z,99.90
2023-04-20T11:45:52.255Z,99.90
2023-04-20T11:48:19.794Z,99.90
2023-04-20T11:50:47.293Z,99.90
2023-04-20T11:53:14.873Z,99.90
2023-04-20T11:55:43.132Z,99.90
2023-04-20T11:58:10.673Z,99.90
2023-04-20T12:00:38.998Z,99.90
2023-04-20T12:03:06.648Z,99.90
2023-04-20T12:05:34.102Z,99.90
2023-04-20T12:08:02.369Z,99.90
2023-04-20T12:10:29.904Z,99.90
2023-04-20T12:12:58.224Z,99.90
2023-04-20T12:15:25.769Z,99.90
2023-04-20T12:17:53.313Z,99.90
2023-04-20T12:20:21.632Z,99.90
2023-04-20T12:22:49.146Z,99.90
2023-04-20T12:25:16.671Z,99.90
2023-04-20T12:27:44.291Z,99.90
2023-04-20T12:30:11.910Z,99.90
2023-04-20T12:32:39.464Z,99.90
2023-04-20T12:35:07.105Z,99.90
2023-04-20T12:37:34.636Z,99.90
2023-04-20T12:40:02.186Z,99.90
2023-04-20T12:42:30.051Z,99.90
2023-04-20T12:44:57.582Z,99.90
2023-04-20T12:47:25.899Z,99.90
2023-04-20T12:49:53.451Z,99.90
2023-04-20T12:52:20.998Z,99.90
2023-04-20T12:54:48.524Z,99.90
2023-04-20T12:57:16.883Z,99.90
2023-04-20T12:59:44.358Z,99.90
2023-04-20T13:02:12.714Z,99.90
2023-04-20T13:04:40.243Z,99.90
2023-04-20T13:07:08.507Z,99.90
2023-04-20T13:09:36.023Z,99.90
2023-04-20T13:12:04.373Z,99.90
2023-04-20T13:14:31.946Z,99.90
2023-04-20T13:16:59.508Z,99.90
2023-04-20T13:19:27.061Z,99.90
2023-04-20T13:21:54.593Z,99.90
2023-04-20T13:24:22.117Z,99.30
2023-04-20T13:26:49.794Z,99.30
2023-04-20T13:29:17.646Z,99.10
2023-04-20T13:31:45.709Z,99.10
2023-04-20T13:34:13.232Z,99.00
2023-04-20T13:36:40.780Z,99.00
2023-04-20T13:39:08.314Z,98.90
2023-04-20T13:41:35.896Z,98.70
2023-04-20T13:44:03.415Z,98.10
2023-04-20T13:46:31.134Z,97.80
2023-04-20T13:48:58.601Z,97.20
2023-04-20T13:51:26.124Z,97.30
2023-04-20T13:53:53.647Z,97.00
2023-04-20T13:56:21.265Z,96.90
2023-04-20T13:58:48.789Z,96.70
2023-04-20T14:01:16.373Z,96.70
2023-04-20T14:03:44.948Z,95.10
2023-04-20T14:06:12.209Z,95.10
2023-04-20T14:08:39.737Z,95.00
2023-04-20T14:11:07.353Z,95.00
2023-04-20T14:13:34.877Z,94.40
2023-04-20T14:16:02.473Z,94.00
2023-04-20T14:18:30.284Z,93.80
2023-04-20T14:20:57.816Z,93.30
2023-04-20T14:23:26.129Z,93.40
2023-04-20T14:25:53.714Z,93.40
2023-04-20T14:28:21.262Z,93.20
2023-04-20T14:30:48.787Z,93.00
2023-04-20T14:33:16.376Z,92.70
2023-04-20T14:35:43.898Z,92.00
2023-04-20T14:38:11.453Z,91.40
2023-04-20T14:40:39.801Z,90.60
2023-04-20T14:43:07.384Z,90.60
2023-04-20T14:45:35.700Z,87.80
2023-04-20T14:48:03.366Z,87.80
2023-04-20T14:50:30.845Z,87.70
2023-04-20T14:52:58.369Z,86.80
2023-04-20T14:55:26.272Z,87.00
2023-04-20T14:57:56.441Z,87.20
2023-04-20T15:00:26.863Z,85.80
2023-04-20T15:02:54.681Z,84.30
2023-04-20T15:05:22.204Z,83.00
2023-04-20T15:07:50.241Z,83.10
2023-04-20T15:10:18.602Z,82.50
2023-04-20T15:12:46.138Z,82.50
2023-04-20T15:15:13.658Z,82.10
2023-04-20T15:17:41.254Z,81.90
2023-04-20T15:20:08.884Z,80.80
2023-04-20T15:22:36.416Z,79.60
2023-04-20T15:25:04.761Z,78.20
2023-04-20T15:27:32.304Z,78.20
2023-04-20T15:29:59.828Z,77.00
2023-04-20T15:32:27.501Z,77.40
2023-04-20T15:34:54.926Z,75.80
2023-04-20T15:37:23.236Z,75.00
2023-04-20T15:39:50.806Z,75.00
2023-04-20T15:42:18.365Z,74.10
2023-04-20T15:44:45.882Z,72.90
2023-04-20T15:47:14.264Z,74.40
2023-04-20T15:49:41.798Z,74.50
2023-04-20T15:52:09.316Z,75.30
2023-04-20T15:54:36.974Z,76.40
2023-04-20T15:57:04.526Z,77.20
2023-04-20T15:59:32.035Z,76.60
2023-04-20T16:01:59.671Z,76.60
2023-04-20T16:04:27.208Z,76.70
2023-04-20T16:06:54.710Z,76.70
2023-04-20T16:09:23.793Z,77.00
2023-04-20T16:11:50.061Z,77.50
2023-04-20T16:14:18.678Z,79.80
2023-04-20T16:16:45.935Z,80.40
2023-04-20T16:19:16.327Z,81.40
2023-04-20T16:21:44.613Z,88.90
2023-04-20T16:24:12.196Z,88.10
2023-04-20T16:26:41.213Z,90.70
2023-04-20T16:29:08.039Z,93.00
2023-04-20T16:31:35.648Z,93.00
2023-04-20T16:34:03.139Z,94.00
2023-04-20T16:36:30.671Z,94.60
2023-04-20T16:38:59.169Z,96.40
2023-04-20T16:41:26.709Z,96.30
2023-04-20T16:43:55.004Z,98.50
2023-04-20T16:46:22.861Z,98.50
2023-04-20T16:48:51.166Z,99.90
2023-04-20T16:51:18.701Z,99.90
2023-04-20T16:53:46.273Z,99.90
2023-04-20T16:56:13.825Z,99.90
2023-04-20T16:58:41.351Z,99.90
2023-04-20T17:01:09.718Z,99.90
2023-04-20T17:03:37.467Z,99.90
2023-04-20T17:06:04.757Z,99.90
2023-04-20T17:08:33.087Z,99.90
2023-04-20T17:11:00.613Z,99.90
2023-04-20T17:13:28.141Z,99.90
2023-04-20T17:15:56.418Z,99.90
2023-04-20T17:18:23.797Z,99.90
2023-04-20T17:20:51.331Z,99.90
2023-04-20T17:23:20.063Z,99.90
2023-04-20T17:25:47.600Z,99.90
2023-04-20T17:28:15.137Z,99.90
2023-04-20T17:30:42.753Z,99.90
2023-04-20T17:33:10.294Z,99.90
2023-04-20T17:35:38.210Z,99.90
2023-04-20T17:38:05.436Z,99.90
2023-04-20T17:40:33.039Z,99.90
2023-04-20T17:43:00.542Z,99.90
2023-04-20T17:45:28.914Z,99.90
2023-04-20T17:47:56.599Z,99.90
2023-04-20T17:50:24.848Z,99.90
2023-04-20T17:52:52.409Z,99.90
2023-04-20T17:55:19.936Z,99.90
2023-04-20T17:57:48.226Z,99.90
2023-04-20T18:00:15.949Z,99.90
2023-04-20T18:02:43.556Z,99.90
2023-04-20T18:05:11.015Z,99.90
2023-04-20T18:07:38.629Z,99.90
2023-04-20T18:10:06.257Z,99.90
2023-04-20T18:12:33.770Z,99.90
2023-04-20T18:15:02.113Z,99.90
2023-04-20T18:17:29.706Z,99.90
2023-04-20T18:19:57.162Z,99.90
2023-04-20T18:22:25.493Z,99.90
2023-04-20T18:24:53.028Z,99.90
2023-04-20T18:27:20.550Z,99.90
2023-04-20T18:29:48.140Z,99.90
2023-04-20T18:32:15.654Z,99.90
2023-04-20T18:34:43.191Z,99.90
2023-04-20T18:37:10.754Z,99.90
2023-04-20T18:39:38.284Z,99.90
2023-04-20T18:42:05.810Z,99.90
2023-04-20T18:44:34.333Z,99.90
2023-04-20T18:47:02.559Z,99.90
2023-04-20T18:49:30.023Z,99.90
2023-04-20T18:51:57.586Z,99.90
2023-04-20T18:54:25.900Z,99.90
2023-04-20T18:56:53.432Z,99.90
2023-04-20T18:59:21.019Z,99.90
2023-04-20T19:01:48.547Z,99.90
2023-04-20T19:04:17.040Z,99.90
2023-04-20T19:06:44.409Z,99.90
2023-04-20T19:09:11.941Z,99.90
2023-04-20T19:11:40.226Z,99.90
2023-04-20T19:14:07.778Z,99.90
2023-04-20T19:16:35.397Z,99.90
2023-04-20T19:19:02.840Z,99.90
2023-04-20T19:21:30.425Z,99.90
2023-04-20T19:23:57.938Z,99.90
2023-04-20T19:26:25.478Z,99.90
2023-04-20T19:28:53.096Z,99.90
2023-04-20T19:31:20.793Z,99.90
2023-04-20T19:33:48.164Z,99.90
2023-04-20T19:36:15.751Z,99.90
2023-04-20T19:38:43.287Z,99.90
2023-04-20T19:41:10.811Z,99.90
2023-04-20T19:43:39.158Z,99.90
2023-04-20T19:46:06.731Z,99.90
2023-04-20T19:48:34.207Z,99.90
2023-04-20T19:51:03.587Z,99.90
2023-04-20T19:53:31.145Z,99.90
2023-04-20T19:55:58.668Z,99.90
2023-04-20T19:58:27.048Z,99.90
2023-04-20T20:00:54.721Z,99.90
2023-04-20T20:03:22.235Z,99.90
2023-04-20T20:05:49.684Z,99.90
2023-04-20T20:08:18.013Z,99.90
2023-04-20T20:10:45.563Z,99.90
2023-04-20T20:13:13.130Z,99.90
2023-04-20T20:15:40.731Z,99.90
2023-04-20T20:18:08.302Z,99.90
2023-04-20T20:20:35.824Z,99.90
2023-04-20T20:23:03.348Z,99.90
2023-04-20T20:25:30.880Z,99.90
2023-04-20T20:27:59.217Z,99.90
2023-04-20T20:30:26.772Z,99.90
2023-04-20T20:32:54.355Z,99.90
2023-04-20T20:35:22.176Z,99.90
2023-04-20T20:37:49.699Z,99.90
2023-04-20T20:40:17.223Z,99.90
2023-04-20T20:42:44.776Z,99.90
2023-04-20T20:45:12.324Z,99.90
2023-04-20T20:47:39.887Z,99.90
2023-04-20T20:50:07.562Z,99.90
2023-04-20T20:52:35.195Z,99.90
2023-04-20T20:55:02.698Z,99.90
2023-04-20T20:57:30.991Z,99.90
2023-04-20T20:59:59.321Z,99.90
2023-04-20T21:02:26.930Z,99.90
2023-04-20T21:04:54.382Z,99.90
2023-04-20T21:07:22.879Z,99.90
2023-04-20T21:09:50.411Z,99.90
2023-04-20T21:12:18.711Z,99.90
2023-04-20T21:14:46.284Z,99.90
2023-04-20T21:17:13.831Z,99.90
2023-04-20T21:19:42.109Z,99.90
2023-04-20T21:22:09.683Z,99.90
2023-04-20T21:24:37.245Z,99.90
2023-04-20T21:27:04.798Z,99.90
2023-04-20T21:29:32.372Z,99.90
2023-04-20T21:31:59.961Z,99.90
2023-04-20T21:34:27.418Z,99.90
2023-04-20T21:36:55.024Z,99.90
2023-04-20T21:39:22.550Z,99.90
2023-04-20T21:41:50.843Z,99.90
2023-04-20T21:44:19.183Z,99.90
2023-04-20T21:46:46.748Z,99.90
2023-04-20T21:49:14.255Z,99.90
2023-04-20T21:51:41.946Z,99.90
2023-04-20T21:54:09.489Z,99.90
2023-04-20T21:56:37.105Z,99.90
2023-04-20T21:59:05.468Z,99.90
2023-04-20T22:01:33.041Z,99.90
2023-04-20T22:04:00.814Z,99.90
2023-04-20T22:06:28.120Z,99.90
2023-04-20T22:08:55.644Z,99.90
2023-04-20T22:11:23.178Z,99.90
2023-04-20T22:13:51.545Z,99.90
2023-04-20T22:16:19.085Z,99.90
2023-04-20T22:18:46.599Z,99.90
2023-04-20T22:21:14.194Z,99.90
2023-04-20T22:23:41.717Z,99.90
2023-04-20T22:26:09.245Z,99.90
2023-04-20T22:28:36.818Z,99.90
2023-04-20T22:31:04.349Z,99.90
2023-04-20T22:33:31.859Z,99.90
2023-04-20T22:35:59.532Z,99.90
2023-04-20T22:38:27.110Z,99.90
2023-04-20T22:40:54.603Z,99.90
2023-04-20T22:43:22.944Z,99.90
2023-04-20T22:45:50.499Z,99.90
2023-04-20T22:48:18.031Z,99.90
2023-04-20T22:50:45.578Z,99.90
2023-04-20T22:53:13.898Z,99.90
2023-04-20T22:55:41.445Z,99.90
2023-04-20T22:58:09.048Z,99.90
2023-04-20T23:00:36.974Z,99.90
2023-04-20T23:03:04.636Z,99.90
2023-04-20T23:05:32.792Z,99.90
2023-04-20T23:08:00.339Z,99.90
2023-04-20T23:10:30.805Z,99.90
2023-04-20T23:12:58.320Z,99.90
2023-04-20T23:15:26.684Z,99.90
2023-04-20T23:17:54.982Z,99.90
2023-04-20T23:20:23.267Z,99.90
2023-04-20T23:22:50.846Z,99.90
2023-04-20T23:25:18.375Z,99.90
2023-04-20T23:27:45.912Z,99.90
2023-04-20T23:30:14.244Z,99.90
2023-04-20T23:32:44.312Z,99.90
2023-04-20T23:35:09.460Z,99.90
2023-04-20T23:37:37.631Z,99.90
2023-04-20T23:40:05.306Z,99.90
2023-04-20T23:42:32.797Z,99.90
2023-04-20T23:45:01.153Z,99.90
2023-04-20T23:47:28.744Z,99.90
2023-04-20T23:49:56.258Z,99.90
2023-04-20T23:52:23.873Z,99.90
2023-04-20T23:54:52.184Z,99.90
2023-04-20T23:57:19.723Z,99.90
2023-04-20T23:59:47.411Z,99.90
